createdAt,value
2018-03-03T17:09:25.201Z,38.47
2018-03-03T17:11:54.503Z,41.20
2018-03-03T17:14:28.579Z,40.00
2018-03-03T17:17:01.916Z,39.07
2018-03-03T17:19:35.577Z,37.50
2018-03-03T17:22:08.885Z,38.57
2018-03-03T17:24:45.814Z,39.77
2018-03-03T17:27:18.501Z,39.43
2018-03-03T17:29:50.239Z,40.17
2018-03-03T17:32:29.163Z,41.67
2018-03-03T17:35:04.889Z,39.17
2018-03-03T17:37:37.928Z,39.00
2018-03-03T17:40:08.372Z,38.97
2018-03-03T17:42:39.064Z,38.30
2018-03-03T17:45:09.695Z,38.50
2018-03-03T17:47:43.043Z,38.10
2018-03-03T17:50:19.018Z,36.60
2018-03-03T17:52:50.819Z,38.70
2018-03-03T17:55:25.966Z,39.13
2018-03-03T17:57:59.281Z,39.17
2018-03-03T18:00:29.206Z,36.00
2018-03-03T18:02:58.501Z,36.80
2018-03-03T18:05:27.788Z,38.37
2018-03-03T18:07:57.096Z,37.87
2018-03-03T18:10:26.383Z,38.00
2018-03-03T18:12:55.678Z,37.83
2018-03-03T18:15:25.003Z,38.73
2018-03-03T18:17:56.012Z,35.13
2018-03-03T18:20:25.270Z,36.50
2018-03-03T18:22:55.314Z,36.23
2018-03-03T18:25:24.634Z,38.83
2018-03-03T18:27:53.919Z,38.37
2018-03-03T18:30:23.259Z,39.67
2018-03-03T18:32:52.569Z,36.50
2018-03-03T18:35:21.834Z,38.77
2018-03-03T18:37:51.132Z,39.07
2018-03-03T18:40:20.662Z,38.97
2018-03-03T18:42:49.958Z,38.20
2018-03-03T18:45:19.365Z,37.93
2018-03-03T18:47:49.450Z,37.23
2018-03-03T18:50:18.757Z,39.47
2018-03-03T18:52:48.197Z,37.50
2018-03-03T18:55:17.483Z,37.93
2018-03-03T18:57:46.772Z,37.03
2018-03-03T19:00:16.094Z,38.53
2018-03-03T19:02:45.415Z,38.30
2018-03-03T19:05:14.746Z,38.30
2018-03-03T19:07:44.781Z,36.83
2018-03-03T19:10:14.119Z,39.63
2018-03-03T19:12:43.425Z,41.23
2018-03-03T19:15:12.758Z,38.37
2018-03-03T19:17:42.840Z,37.83
2018-03-03T19:20:12.177Z,37.73
2018-03-03T19:22:42.213Z,36.70
2018-03-03T19:25:11.591Z,38.47
2018-03-03T19:27:40.886Z,40.93
2018-03-03T19:30:10.183Z,40.50
2018-03-03T19:32:39.504Z,40.50
2018-03-03T19:35:09.611Z,40.37
2018-03-03T19:37:39.150Z,41.73
2018-03-03T19:40:08.473Z,39.50
2018-03-03T19:42:37.823Z,40.80
2018-03-03T19:45:07.138Z,40.33
2018-03-03T19:47:37.500Z,41.53
2018-03-03T19:50:06.845Z,42.23
2018-03-03T19:52:36.154Z,42.83
2018-03-03T19:55:05.492Z,43.90
2018-03-03T19:57:34.772Z,43.33
2018-03-03T20:00:04.820Z,41.00
2018-03-03T20:02:34.652Z,40.93
2018-03-03T20:05:03.954Z,40.63
2018-03-03T20:07:33.280Z,41.70
2018-03-03T20:10:02.652Z,41.13
2018-03-03T20:12:32.843Z,42.63
2018-03-03T20:15:02.264Z,42.30
2018-03-03T20:17:31.623Z,40.87
2018-03-03T20:20:01.751Z,43.93
2018-03-03T20:22:31.084Z,43.07
2018-03-03T20:25:00.427Z,44.70
2018-03-03T20:27:29.735Z,44.37
2018-03-03T20:29:59.612Z,43.27
2018-03-03T20:32:28.903Z,40.87
2018-03-03T20:34:58.350Z,43.77
2018-03-03T20:37:27.706Z,43.50
2018-03-03T20:39:57.033Z,41.83
2018-03-03T20:42:26.364Z,44.30
2018-03-03T20:44:55.686Z,44.23
2018-03-03T20:47:25.753Z,43.13
2018-03-03T20:49:55.054Z,43.93
2018-03-03T20:52:24.400Z,42.47
